Almirante Tamandare, Brazil
Current Conditions -  °F | °C
As of 4:00 PM on Thursday 30 Oct 2014 (Local Time) from SBBI Reporting Station
Few Clouds Few Clouds  
Wind Chill: 88°   Ceiling: Unl
Heat Index: 88°   Visibility: 6mi
Dew Point: 48°   Wind: 5mph
Humidity: 25%   Direction: 270°W
Pressure: 29.85"   Gusts: NA
Location:  25.32°S, 49.31°W
Report Text: SBBI 301800Z 27004KT 9999 FEW040 31/09 Q1011
Loading
Personal Weather Stations






























Interactive Weather Map
Tropical Storm Tracking
New forecast layout! Learn more

10-Day Weather Forecast

Advertisements
Track Severe Weather on mobile